createdAt,value
2022-07-29T00:00:39.561Z,74.56
2022-07-29T00:03:36.549Z,75.95
2022-07-29T00:06:37.414Z,76.03
2022-07-29T00:09:42.991Z,74.46
2022-07-29T00:12:49.567Z,73.93
2022-07-29T00:15:46.838Z,73.21
2022-07-29T00:18:43.796Z,73.36
2022-07-29T00:21:40.617Z,73.02
2022-07-29T00:24:37.639Z,74.57
2022-07-29T00:27:35.162Z,74.93
2022-07-29T00:30:32.855Z,74.77
2022-07-29T00:33:29.952Z,71.76
2022-07-29T00:36:27.436Z,72.94
2022-07-29T00:39:24.726Z,74.83
2022-07-29T00:42:21.631Z,73.10
2022-07-29T00:45:18.744Z,73.43
2022-07-29T00:48:16.658Z,73.71
2022-07-29T00:51:13.755Z,73.39
2022-07-29T00:54:10.628Z,72.50
2022-07-29T00:57:08.814Z,73.40
2022-07-29T01:00:09.340Z,73.01
2022-07-29T01:03:06.538Z,74.05
2022-07-29T01:06:03.516Z,74.32
2022-07-29T01:09:01.015Z,76.94
2022-07-29T01:11:57.816Z,76.49
2022-07-29T01:14:54.886Z,76.48
2022-07-29T01:18:14.828Z,77.58
2022-07-29T01:21:36.817Z,77.35
2022-07-29T01:24:51.965Z,79.56
2022-07-29T01:28:02.486Z,79.79
2022-07-29T01:31:00.746Z,78.54
2022-07-29T01:34:00.314Z,78.73
2022-07-29T01:37:21.300Z,79.48
2022-07-29T01:40:23.807Z,78.78
2022-07-29T01:43:22.436Z,78.25
2022-07-29T01:46:22.711Z,79.66
2022-07-29T01:49:23.059Z,77.85
2022-07-29T01:52:40.218Z,76.53
2022-07-29T01:55:40.161Z,76.99
2022-07-29T01:58:40.266Z,77.36
2022-07-29T02:01:37.983Z,77.26
2022-07-29T02:04:34.982Z,77.00
2022-07-29T02:07:31.683Z,77.00
2022-07-29T02:10:30.875Z,78.01
2022-07-29T02:13:27.878Z,80.43
2022-07-29T02:16:24.523Z,78.68
2022-07-29T02:19:23.374Z,78.10
2022-07-29T02:22:20.884Z,78.04
2022-07-29T02:25:17.590Z,76.80
2022-07-29T02:28:14.776Z,76.95
2022-07-29T02:31:11.915Z,78.37
2022-07-29T02:34:09.513Z,79.09
2022-07-29T02:37:06.798Z,77.52
2022-07-29T02:40:04.463Z,78.24
2022-07-29T02:43:03.926Z,77.21
2022-07-29T02:46:00.668Z,77.31
2022-07-29T02:49:02.528Z,77.78
2022-07-29T02:52:17.678Z,78.34
2022-07-29T02:55:25.360Z,76.64
2022-07-29T02:58:30.199Z,77.23
2022-07-29T03:01:31.305Z,77.50
2022-07-29T03:04:29.550Z,76.83
2022-07-29T03:07:26.888Z,77.15
2022-07-29T03:10:24.502Z,76.61
2022-07-29T03:13:21.717Z,76.62
2022-07-29T03:16:19.975Z,76.54
2022-07-29T03:19:17.298Z,76.95
2022-07-29T03:22:15.023Z,77.03
2022-07-29T03:25:18.221Z,77.16
2022-07-29T03:28:15.806Z,77.20
2022-07-29T03:31:13.944Z,78.10
2022-07-29T03:34:10.989Z,78.16
2022-07-29T03:37:08.083Z,77.97
2022-07-29T03:40:06.816Z,76.21
2022-07-29T03:43:04.117Z,77.35
2022-07-29T03:46:01.304Z,76.81
2022-07-29T03:49:01.013Z,77.44
2022-07-29T03:51:57.727Z,77.14
2022-07-29T03:54:54.518Z,78.53
2022-07-29T03:57:52.176Z,78.33
2022-07-29T04:00:48.885Z,77.00
2022-07-29T04:03:46.989Z,78.16
2022-07-29T04:06:45.472Z,78.92
2022-07-29T04:09:42.674Z,77.45
2022-07-29T04:12:40.153Z,76.60
2022-07-29T04:15:38.209Z,76.07
2022-07-29T04:18:35.506Z,75.66
2022-07-29T04:22:00.562Z,76.55
2022-07-29T04:25:01.762Z,78.21
2022-07-29T04:28:04.016Z,77.49
2022-07-29T04:31:01.054Z,77.64
2022-07-29T04:33:57.573Z,77.39
2022-07-29T04:36:55.100Z,78.11
2022-07-29T04:39:51.857Z,78.09
2022-07-29T04:42:49.978Z,78.81
2022-07-29T04:45:46.805Z,77.24
2022-07-29T04:48:43.880Z,78.65
2022-07-29T04:51:40.717Z,79.06
2022-07-29T04:54:37.935Z,79.14
2022-07-29T04:57:34.943Z,78.03
2022-07-29T05:00:33.312Z,78.46
2022-07-29T05:03:30.732Z,77.45
2022-07-29T05:06:27.633Z,78.88
2022-07-29T05:09:25.014Z,78.85
2022-07-29T05:12:21.851Z,79.41
2022-07-29T05:15:19.111Z,79.57
2022-07-29T05:18:15.978Z,78.85
2022-07-29T05:21:12.951Z,77.73
2022-07-29T05:24:09.983Z,78.11
2022-07-29T05:27:07.060Z,78.23
2022-07-29T05:30:04.561Z,77.84
2022-07-29T05:33:02.083Z,78.06
2022-07-29T05:36:00.903Z,78.28
2022-07-29T05:38:57.721Z,78.31
2022-07-29T05:41:55.223Z,77.69
2022-07-29T05:44:52.449Z,77.36
2022-07-29T05:47:50.247Z,77.50
2022-07-29T05:50:48.065Z,78.41
2022-07-29T05:53:45.902Z,76.93
2022-07-29T05:56:43.161Z,77.40
2022-07-29T05:59:43.003Z,77.36
2022-07-29T06:02:40.079Z,77.13
2022-07-29T06:05:36.942Z,76.02
2022-07-29T06:08:34.921Z,75.23
2022-07-29T06:11:32.162Z,76.60
2022-07-29T06:14:29.409Z,74.64
2022-07-29T06:17:27.050Z,75.14
2022-07-29T06:20:26.917Z,74.77
2022-07-29T06:23:25.122Z,76.38
2022-07-29T06:26:28.464Z,75.72
2022-07-29T06:29:29.274Z,74.95
2022-07-29T06:32:27.497Z,73.64
2022-07-29T06:35:38.666Z,73.57
2022-07-29T06:38:42.097Z,74.33
2022-07-29T06:41:42.406Z,73.49
2022-07-29T06:44:42.868Z,70.79
2022-07-29T06:47:40.026Z,70.42
2022-07-29T06:50:36.918Z,70.41
2022-07-29T06:53:34.233Z,70.60
2022-07-29T06:56:39.543Z,72.82
2022-07-29T06:59:36.893Z,69.54
2022-07-29T07:02:33.896Z,70.53
2022-07-29T07:05:32.044Z,69.64
2022-07-29T07:08:29.258Z,69.15
2022-07-29T07:11:26.523Z,67.29
2022-07-29T07:14:23.806Z,68.79
2022-07-29T07:17:21.379Z,68.28
2022-07-29T07:20:18.886Z,70.17
2022-07-29T07:23:16.135Z,68.83
2022-07-29T07:26:13.214Z,71.07
2022-07-29T07:29:10.352Z,69.11
2022-07-29T07:32:07.123Z,67.51
2022-07-29T07:35:08.178Z,65.69
2022-07-29T07:38:06.925Z,66.23
2022-07-29T07:41:04.369Z,68.35
2022-07-29T07:44:02.034Z,69.52
2022-07-29T07:47:03.938Z,67.08
2022-07-29T07:50:16.343Z,66.88
2022-07-29T07:53:15.936Z,67.48
2022-07-29T07:56:13.135Z,68.83
2022-07-29T07:59:10.104Z,64.87
2022-07-29T08:02:09.797Z,65.78
2022-07-29T08:05:08.561Z,66.34
2022-07-29T08:08:10.380Z,68.75
2022-07-29T08:11:09.724Z,66.53
2022-07-29T08:14:07.418Z,66.03
2022-07-29T08:17:04.857Z,66.37
2022-07-29T08:20:02.422Z,66.17
2022-07-29T08:23:00.268Z,64.68
2022-07-29T08:25:56.902Z,62.95
2022-07-29T08:28:54.327Z,62.97
2022-07-29T08:31:51.576Z,65.02
2022-07-29T08:34:49.348Z,64.84
2022-07-29T08:37:46.191Z,65.58
2022-07-29T08:40:42.974Z,63.75
2022-07-29T08:43:41.998Z,63.02
2022-07-29T08:46:40.456Z,68.54
2022-07-29T08:49:39.217Z,65.06
2022-07-29T08:52:40.288Z,65.38
2022-07-29T08:55:36.848Z,65.03
2022-07-29T08:58:36.612Z,61.96
2022-07-29T09:01:35.930Z,60.55
2022-07-29T09:04:35.406Z,58.66
2022-07-29T09:07:34.732Z,58.04
2022-07-29T09:10:32.302Z,56.96
2022-07-29T09:13:29.327Z,53.67
2022-07-29T09:16:50.889Z,56.42
2022-07-29T09:19:45.508Z,56.08
2022-07-29T09:22:42.996Z,55.84
2022-07-29T09:25:41.188Z,55.58
2022-07-29T09:28:37.859Z,58.34
2022-07-29T09:31:36.574Z,55.31
2022-07-29T09:34:34.281Z,55.02
2022-07-29T09:37:31.284Z,55.99
2022-07-29T09:40:28.681Z,55.97
2022-07-29T09:43:26.212Z,53.74
2022-07-29T09:46:23.585Z,55.91
2022-07-29T09:49:21.096Z,57.72
2022-07-29T09:52:18.358Z,54.78
2022-07-29T09:55:18.234Z,55.43
2022-07-29T09:58:18.446Z,57.65
2022-07-29T10:01:16.060Z,57.78
2022-07-29T10:04:13.573Z,54.58
2022-07-29T10:07:11.293Z,53.86
2022-07-29T10:10:08.589Z,55.90
2022-07-29T10:13:15.404Z,59.17
2022-07-29T10:16:14.066Z,57.71
2022-07-29T10:19:11.458Z,53.34
2022-07-29T10:22:09.449Z,55.81
2022-07-29T10:25:06.552Z,55.30
2022-07-29T10:28:04.445Z,54.41
2022-07-29T10:31:06.808Z,55.09
2022-07-29T10:34:30.093Z,52.19
2022-07-29T10:37:51.120Z,52.85
2022-07-29T10:41:31.874Z,56.12
2022-07-29T10:44:29.148Z,54.05
2022-07-29T10:47:26.886Z,53.43
2022-07-29T10:50:24.479Z,51.68
2022-07-29T10:53:25.720Z,48.64
2022-07-29T10:56:28.559Z,51.25
2022-07-29T10:59:27.129Z,50.92
2022-07-29T11:02:41.871Z,51.40
2022-07-29T11:05:59.485Z,53.16
2022-07-29T11:09:16.567Z,49.75
2022-07-29T11:12:39.549Z,53.29
2022-07-29T11:15:56.436Z,53.29
2022-07-29T11:19:13.763Z,52.27
2022-07-29T11:22:11.734Z,52.56
2022-07-29T11:25:18.257Z,52.32
2022-07-29T11:28:22.884Z,52.73
2022-07-29T11:31:34.413Z,50.32
2022-07-29T11:34:33.255Z,52.63
2022-07-29T11:37:32.451Z,53.07
2022-07-29T11:40:40.200Z,52.75
2022-07-29T11:43:55.168Z,51.66
2022-07-29T11:46:54.021Z,52.57
2022-07-29T11:49:52.209Z,51.98
2022-07-29T11:52:51.216Z,52.95
2022-07-29T11:55:51.723Z,52.72
2022-07-29T11:58:49.298Z,54.09
2022-07-29T12:02:33.355Z,51.90
2022-07-29T12:05:35.900Z,53.74
2022-07-29T12:08:44.030Z,53.34
2022-07-29T12:11:41.268Z,52.71
2022-07-29T12:14:38.147Z,52.55
2022-07-29T12:17:36.247Z,49.40
2022-07-29T12:20:34.299Z,50.40
2022-07-29T12:23:34.761Z,51.46
2022-07-29T12:26:32.159Z,52.48
2022-07-29T12:29:33.710Z,52.90
2022-07-29T12:32:40.373Z,53.39
2022-07-29T12:35:37.404Z,53.50
2022-07-29T12:38:36.993Z,53.10
2022-07-29T12:41:34.356Z,53.92
2022-07-29T12:44:47.776Z,54.14
2022-07-29T12:47:54.914Z,52.20
2022-07-29T12:50:55.189Z,53.00
2022-07-29T12:54:08.556Z,51.84
2022-07-29T12:57:05.238Z,52.23
2022-07-29T13:00:11.653Z,52.89
2022-07-29T13:03:09.362Z,55.05
2022-07-29T13:06:08.364Z,54.10
2022-07-29T13:09:19.126Z,54.15
2022-07-29T13:12:16.347Z,54.45
2022-07-29T13:15:15.270Z,56.88
2022-07-29T13:18:36.373Z,54.22
2022-07-29T13:21:33.928Z,54.37
2022-07-29T13:24:31.625Z,57.09
2022-07-29T13:27:33.154Z,58.95
2022-07-29T13:30:30.407Z,58.89
2022-07-29T13:33:27.438Z,60.52
2022-07-29T13:36:24.489Z,58.51
2022-07-29T13:39:21.542Z,60.92
2022-07-29T13:42:18.686Z,59.92
2022-07-29T13:45:16.620Z,59.18
2022-07-29T13:48:13.237Z,56.63
2022-07-29T13:51:10.276Z,58.23
2022-07-29T13:54:07.118Z,57.31
2022-07-29T13:57:05.364Z,56.77
2022-07-29T14:00:02.642Z,55.86
2022-07-29T14:03:05.524Z,58.71
2022-07-29T14:06:02.432Z,58.07
2022-07-29T14:08:59.257Z,59.38
2022-07-29T14:11:56.685Z,61.37
2022-07-29T14:14:54.257Z,60.87
2022-07-29T14:17:51.296Z,61.22
2022-07-29T14:20:48.321Z,59.71
2022-07-29T14:23:45.139Z,63.88
2022-07-29T14:26:42.592Z,60.09
2022-07-29T14:29:43.195Z,61.55
2022-07-29T14:32:40.682Z,62.13
2022-07-29T14:35:37.266Z,61.38
2022-07-29T14:38:34.488Z,61.24
2022-07-29T14:41:31.675Z,61.44
2022-07-29T14:44:32.365Z,61.96
2022-07-29T14:47:30.719Z,62.47
2022-07-29T14:50:31.932Z,61.35
2022-07-29T14:53:29.573Z,65.10
2022-07-29T14:56:37.276Z,62.58
2022-07-29T14:59:35.715Z,63.45
2022-07-29T15:02:59.330Z,62.63
2022-07-29T15:05:49.671Z,63.23
2022-07-29T15:08:46.705Z,63.23
2022-07-29T15:11:43.570Z,64.89
2022-07-29T15:14:40.715Z,64.68
2022-07-29T15:17:37.676Z,63.81
2022-07-29T15:20:34.616Z,62.69
2022-07-29T15:23:31.719Z,63.05
2022-07-29T15:26:28.280Z,62.51
2022-07-29T15:29:25.453Z,62.93
2022-07-29T15:32:22.475Z,63.11
2022-07-29T15:35:19.492Z,63.23
2022-07-29T15:38:17.175Z,67.13
2022-07-29T15:41:15.280Z,68.25
2022-07-29T15:44:12.568Z,67.04
2022-07-29T15:47:09.599Z,66.79
2022-07-29T15:50:07.719Z,65.68
2022-07-29T15:53:04.332Z,65.88
2022-07-29T15:56:01.433Z,63.25
2022-07-29T15:58:58.698Z,64.47
2022-07-29T16:01:55.381Z,63.09
2022-07-29T16:04:52.612Z,62.89
2022-07-29T16:07:49.368Z,63.96
2022-07-29T16:10:46.629Z,64.42
2022-07-29T16:13:43.543Z,65.44
2022-07-29T16:16:41.716Z,66.28
2022-07-29T16:19:39.421Z,65.86
2022-07-29T16:22:36.795Z,64.33
2022-07-29T16:25:57.410Z,65.13
2022-07-29T16:28:50.321Z,65.20
2022-07-29T16:31:48.465Z,65.18
2022-07-29T16:34:45.587Z,64.83
2022-07-29T16:37:43.601Z,65.75
2022-07-29T16:40:40.762Z,66.32
2022-07-29T16:43:38.641Z,65.49
2022-07-29T16:46:37.440Z,64.02
2022-07-29T16:49:36.475Z,64.52
2022-07-29T16:52:33.881Z,66.20
2022-07-29T16:55:31.522Z,64.17
2022-07-29T16:58:28.898Z,64.84
2022-07-29T17:01:26.889Z,62.55
2022-07-29T17:04:24.760Z,64.04
2022-07-29T17:07:22.924Z,62.70
2022-07-29T17:10:22.235Z,63.77
2022-07-29T17:13:19.823Z,63.93
2022-07-29T17:16:16.893Z,65.60
2022-07-29T17:19:14.569Z,63.53
2022-07-29T17:22:18.796Z,63.13
2022-07-29T17:25:20.980Z,65.77
2022-07-29T17:28:18.390Z,67.57
2022-07-29T17:31:15.410Z,66.56
2022-07-29T17:34:12.972Z,66.36
2022-07-29T17:37:11.403Z,65.20
2022-07-29T17:40:09.186Z,66.57
2022-07-29T17:43:09.322Z,64.68
2022-07-29T17:46:08.026Z,71.44
2022-07-29T17:49:05.759Z,69.15
2022-07-29T17:52:02.757Z,70.06
2022-07-29T17:54:59.619Z,69.28
2022-07-29T17:57:59.983Z,70.15
2022-07-29T18:00:57.665Z,69.05
2022-07-29T18:03:58.481Z,69.48
2022-07-29T18:06:57.777Z,68.27
2022-07-29T18:09:58.637Z,67.71
2022-07-29T18:12:57.704Z,67.24
2022-07-29T18:15:59.966Z,64.63
2022-07-29T18:18:57.359Z,66.36
2022-07-29T18:21:57.333Z,65.00
2022-07-29T18:24:56.924Z,65.29
2022-07-29T18:27:57.262Z,67.58
2022-07-29T18:30:57.929Z,67.09
2022-07-29T18:33:59.737Z,65.95
2022-07-29T18:36:57.789Z,66.14
2022-07-29T18:39:58.150Z,66.84
2022-07-29T18:42:56.626Z,67.66
2022-07-29T18:45:53.705Z,67.33
2022-07-29T18:48:50.701Z,69.03
2022-07-29T18:51:48.219Z,67.74
2022-07-29T18:54:45.480Z,68.45
2022-07-29T18:57:56.250Z,66.31
2022-07-29T19:00:53.420Z,66.71
2022-07-29T19:03:50.504Z,67.11
2022-07-29T19:06:47.553Z,68.15
2022-07-29T19:09:49.378Z,66.57
2022-07-29T19:12:46.940Z,67.00
2022-07-29T19:15:44.525Z,68.28
2022-07-29T19:18:43.168Z,68.40
2022-07-29T19:21:41.001Z,67.84
2022-07-29T19:24:38.455Z,67.73
2022-07-29T19:27:35.660Z,68.44
2022-07-29T19:30:33.419Z,68.72
2022-07-29T19:33:31.132Z,70.26
2022-07-29T19:36:30.618Z,71.75
2022-07-29T19:39:35.338Z,70.99
2022-07-29T19:42:32.617Z,71.20
2022-07-29T19:45:30.416Z,71.32
2022-07-29T19:48:27.661Z,72.44
2022-07-29T19:51:24.524Z,72.22
2022-07-29T19:54:21.608Z,73.63
2022-07-29T19:57:18.533Z,74.39
2022-07-29T20:00:15.604Z,73.59
2022-07-29T20:03:13.293Z,74.42
2022-07-29T20:06:10.549Z,74.67
2022-07-29T20:09:07.691Z,73.73
2022-07-29T20:12:14.755Z,73.06
2022-07-29T20:15:16.170Z,71.97
2022-07-29T20:18:15.767Z,71.82
2022-07-29T20:21:13.080Z,72.24
2022-07-29T20:24:12.729Z,74.37
2022-07-29T20:27:13.541Z,75.26
2022-07-29T20:30:13.889Z,75.36
2022-07-29T20:33:11.556Z,76.00
2022-07-29T20:36:08.634Z,76.46
2022-07-29T20:39:05.725Z,76.84
2022-07-29T20:42:02.742Z,77.09
2022-07-29T20:44:59.613Z,77.63
2022-07-29T20:47:56.612Z,77.42
2022-07-29T20:50:55.091Z,77.21
2022-07-29T20:53:52.768Z,78.01
2022-07-29T20:56:49.960Z,77.36
2022-07-29T20:59:46.744Z,76.70
2022-07-29T21:02:43.943Z,77.72
2022-07-29T21:05:44.079Z,77.75
2022-07-29T21:08:41.574Z,78.08
2022-07-29T21:11:44.068Z,77.36
2022-07-29T21:14:41.436Z,76.76
2022-07-29T21:17:46.348Z,78.18
2022-07-29T21:20:43.363Z,78.68
2022-07-29T21:23:42.393Z,79.71
2022-07-29T21:26:39.849Z,80.42
2022-07-29T21:29:36.808Z,79.88
2022-07-29T21:32:33.993Z,79.46
2022-07-29T21:36:07.371Z,80.14
2022-07-29T21:38:48.043Z,80.71
2022-07-29T21:41:45.064Z,79.25
2022-07-29T21:44:42.129Z,78.85
2022-07-29T21:47:39.810Z,79.70
2022-07-29T21:50:36.689Z,80.04
2022-07-29T21:53:33.531Z,80.04
2022-07-29T21:56:31.468Z,80.01
2022-07-29T21:59:29.037Z,80.95
2022-07-29T22:02:25.855Z,81.66
2022-07-29T22:05:23.169Z,81.94
2022-07-29T22:08:21.846Z,82.30
2022-07-29T22:11:20.268Z,83.35
2022-07-29T22:14:18.527Z,81.77
2022-07-29T22:17:15.834Z,79.87
2022-07-29T22:20:14.251Z,78.36
2022-07-29T22:23:11.941Z,78.79
2022-07-29T22:26:09.217Z,79.98
2022-07-29T22:29:06.994Z,80.74
2022-07-29T22:32:03.987Z,82.61
2022-07-29T22:35:01.025Z,83.03
2022-07-29T22:37:58.075Z,83.25
2022-07-29T22:40:54.702Z,84.13
2022-07-29T22:43:57.567Z,85.17
2022-07-29T22:46:54.907Z,85.62
2022-07-29T22:49:51.692Z,86.08
2022-07-29T22:52:50.064Z,86.36
2022-07-29T22:55:46.656Z,85.45
2022-07-29T22:58:44.133Z,86.29
2022-07-29T23:01:40.684Z,84.87
2022-07-29T23:04:37.690Z,83.92
2022-07-29T23:07:35.011Z,84.65
2022-07-29T23:10:31.878Z,86.26
2022-07-29T23:13:30.159Z,85.67
2022-07-29T23:16:27.153Z,83.20
2022-07-29T23:19:24.573Z,85.21
2022-07-29T23:22:22.069Z,86.16
2022-07-29T23:25:20.233Z,86.79
2022-07-29T23:28:17.777Z,85.41
2022-07-29T23:31:15.171Z,83.51
2022-07-29T23:34:12.827Z,83.19
2022-07-29T23:37:09.919Z,82.95
2022-07-29T23:40:13.608Z,83.69
2022-07-29T23:43:12.042Z,84.83
2022-07-29T23:46:09.036Z,87.16
2022-07-29T23:49:05.965Z,86.81
2022-07-29T23:52:03.232Z,88.36
2022-07-29T23:55:36.959Z,87.94
2022-07-29T23:58:16.879Z,87.56
